sensor_id;sensor_type;location;lat;lon;timestamp;temperature;humidity
61201;DHT22;47065;52.898;6.992;2022-07-23T00:01:28;14.40;99.90
61201;DHT22;47065;52.898;6.992;2022-07-23T00:03:54;14.40;99.90
61201;DHT22;47065;52.898;6.992;2022-07-23T00:06:20;14.40;99.90
61201;DHT22;47065;52.898;6.992;2022-07-23T00:08:46;14.40;99.90
61201;DHT22;47065;52.898;6.992;2022-07-23T00:11:12;14.40;99.90
61201;DHT22;47065;52.898;6.992;2022-07-23T00:13:38;14.40;99.90
61201;DHT22;47065;52.898;6.992;2022-07-23T00:16:04;14.50;99.90
61201;DHT22;47065;52.898;6.992;2022-07-23T00:18:29;14.50;99.90
61201;DHT22;47065;52.898;6.992;2022-07-23T00:20:55;14.50;99.90
61201;DHT22;47065;52.898;6.992;2022-07-23T00:23:21;14.50;99.90
61201;DHT22;47065;52.898;6.992;2022-07-23T00:25:47;14.50;99.90
61201;DHT22;47065;52.898;6.992;2022-07-23T00:28:12;14.40;99.90
61201;DHT22;47065;52.898;6.992;2022-07-23T00:30:38;14.50;99.90
61201;DHT22;47065;52.898;6.992;2022-07-23T00:33:06;14.50;99.90
61201;DHT22;47065;52.898;6.992;2022-07-23T00:35:37;14.50;99.90
61201;DHT22;47065;52.898;6.992;2022-07-23T00:38:05;14.50;99.90
61201;DHT22;47065;52.898;6.992;2022-07-23T00:40:31;14.50;99.90
61201;DHT22;47065;52.898;6.992;2022-07-23T00:42:57;14.50;99.90
61201;DHT22;47065;52.898;6.992;2022-07-23T00:45:24;14.50;99.90
61201;DHT22;47065;52.898;6.992;2022-07-23T00:47:50;14.50;99.90
61201;DHT22;47065;52.898;6.992;2022-07-23T00:50:16;14.80;99.90
61201;DHT22;47065;52.898;6.992;2022-07-23T00:52:42;15.10;99.90
61201;DHT22;47065;52.898;6.992;2022-07-23T00:55:09;15.10;99.90
61201;DHT22;47065;52.898;6.992;2022-07-23T00:57:36;15.00;99.90
61201;DHT22;47065;52.898;6.992;2022-07-23T01:00:05;15.00;99.90
61201;DHT22;47065;52.898;6.992;2022-07-23T01:02:31;14.90;99.90
61201;DHT22;47065;52.898;6.992;2022-07-23T01:04:57;14.80;99.90
61201;DHT22;47065;52.898;6.992;2022-07-23T01:07:23;14.70;99.90
61201;DHT22;47065;52.898;6.992;2022-07-23T01:09:50;14.70;99.90
61201;DHT22;47065;52.898;6.992;2022-07-23T01:12:16;14.60;99.90
61201;DHT22;47065;52.898;6.992;2022-07-23T01:14:41;14.50;99.90
61201;DHT22;47065;52.898;6.992;2022-07-23T01:17:07;14.50;99.90
61201;DHT22;47065;52.898;6.992;2022-07-23T01:19:32;14.40;99.90
61201;DHT22;47065;52.898;6.992;2022-07-23T01:22:01;14.30;99.90
61201;DHT22;47065;52.898;6.992;2022-07-23T01:24:27;14.20;99.90
61201;DHT22;47065;52.898;6.992;2022-07-23T01:26:52;14.20;99.90
61201;DHT22;47065;52.898;6.992;2022-07-23T01:29:18;14.10;99.90
61201;DHT22;47065;52.898;6.992;2022-07-23T01:31:44;14.10;99.90
61201;DHT22;47065;52.898;6.992;2022-07-23T01:34:10;14.00;99.90
61201;DHT22;47065;52.898;6.992;2022-07-23T01:36:36;14.00;99.90
61201;DHT22;47065;52.898;6.992;2022-07-23T01:39:07;14.00;99.90
61201;DHT22;47065;52.898;6.992;2022-07-23T01:41:33;14.00;99.90
61201;DHT22;47065;52.898;6.992;2022-07-23T01:43:58;13.90;99.90
61201;DHT22;47065;52.898;6.992;2022-07-23T01:46:24;13.90;99.90
61201;DHT22;47065;52.898;6.992;2022-07-23T01:48:50;13.90;99.90
61201;DHT22;47065;52.898;6.992;2022-07-23T01:51:15;13.90;99.90
61201;DHT22;47065;52.898;6.992;2022-07-23T01:53:41;13.90;99.90
61201;DHT22;47065;52.898;6.992;2022-07-23T01:56:07;13.80;99.90
61201;DHT22;47065;52.898;6.992;2022-07-23T01:58:32;13.80;99.90
61201;DHT22;47065;52.898;6.992;2022-07-23T02:00:58;13.70;99.90
61201;DHT22;47065;52.898;6.992;2022-07-23T02:03:24;13.70;99.90
61201;DHT22;47065;52.898;6.992;2022-07-23T02:05:49;13.60;99.90
61201;DHT22;47065;52.898;6.992;2022-07-23T02:08:16;13.60;99.90
61201;DHT22;47065;52.898;6.992;2022-07-23T02:10:41;13.50;99.90
61201;DHT22;47065;52.898;6.992;2022-07-23T02:13:07;13.40;99.90
61201;DHT22;47065;52.898;6.992;2022-07-23T02:15:33;13.40;99.90
61201;DHT22;47065;52.898;6.992;2022-07-23T02:17:59;13.30;99.90
61201;DHT22;47065;52.898;6.992;2022-07-23T02:20:24;13.30;99.90
61201;DHT22;47065;52.898;6.992;2022-07-23T02:22:50;13.20;99.90
61201;DHT22;47065;52.898;6.992;2022-07-23T02:25:17;13.10;99.90
61201;DHT22;47065;52.898;6.992;2022-07-23T02:27:43;13.10;99.90
61201;DHT22;47065;52.898;6.992;2022-07-23T02:30:09;13.00;99.90
61201;DHT22;47065;52.898;6.992;2022-07-23T02:32:35;13.00;99.90
61201;DHT22;47065;52.898;6.992;2022-07-23T02:35:01;13.00;99.90
61201;DHT22;47065;52.898;6.992;2022-07-23T02:37:27;12.90;99.90
61201;DHT22;47065;52.898;6.992;2022-07-23T02:39:53;12.90;99.90
61201;DHT22;47065;52.898;6.992;2022-07-23T02:42:19;12.90;99.90
61201;DHT22;47065;52.898;6.992;2022-07-23T02:44:44;12.80;99.90
61201;DHT22;47065;52.898;6.992;2022-07-23T02:47:10;12.80;99.90
61201;DHT22;47065;52.898;6.992;2022-07-23T02:49:36;12.80;99.90
61201;DHT22;47065;52.898;6.992;2022-07-23T02:52:02;12.80;99.90
61201;DHT22;47065;52.898;6.992;2022-07-23T02:54:27;12.70;99.90
61201;DHT22;47065;52.898;6.992;2022-07-23T02:56:53;12.70;99.90
61201;DHT22;47065;52.898;6.992;2022-07-23T02:59:19;12.70;99.90
61201;DHT22;47065;52.898;6.992;2022-07-23T03:01:45;12.60;99.90
61201;DHT22;47065;52.898;6.992;2022-07-23T03:04:11;12.60;99.90
61201;DHT22;47065;52.898;6.992;2022-07-23T03:06:37;12.60;99.90
61201;DHT22;47065;52.898;6.992;2022-07-23T03:09:03;12.60;99.90
61201;DHT22;47065;52.898;6.992;2022-07-23T03:11:29;12.60;99.90
61201;DHT22;47065;52.898;6.992;2022-07-23T03:13:54;12.50;99.90
61201;DHT22;47065;52.898;6.992;2022-07-23T03:16:20;12.50;99.90
61201;DHT22;47065;52.898;6.992;2022-07-23T03:18:46;12.50;99.90
61201;DHT22;47065;52.898;6.992;2022-07-23T03:21:11;12.50;99.90
61201;DHT22;47065;52.898;6.992;2022-07-23T03:23:37;12.50;99.90
61201;DHT22;47065;52.898;6.992;2022-07-23T03:26:02;12.50;99.90
61201;DHT22;47065;52.898;6.992;2022-07-23T03:28:28;12.50;99.90
61201;DHT22;47065;52.898;6.992;2022-07-23T03:30:54;12.50;99.90
61201;DHT22;47065;52.898;6.992;2022-07-23T03:33:20;12.40;99.90
61201;DHT22;47065;52.898;6.992;2022-07-23T03:35:47;12.40;99.90
61201;DHT22;47065;52.898;6.992;2022-07-23T03:38:13;12.40;99.90
61201;DHT22;47065;52.898;6.992;2022-07-23T03:40:39;12.40;99.90
61201;DHT22;47065;52.898;6.992;2022-07-23T03:43:05;12.40;99.90
61201;DHT22;47065;52.898;6.992;2022-07-23T03:45:31;12.40;99.90
61201;DHT22;47065;52.898;6.992;2022-07-23T03:47:56;12.40;99.90
61201;DHT22;47065;52.898;6.992;2022-07-23T03:50:22;12.40;99.90
61201;DHT22;47065;52.898;6.992;2022-07-23T03:52:48;12.40;99.90
61201;DHT22;47065;52.898;6.992;2022-07-23T03:55:14;12.30;99.90
61201;DHT22;47065;52.898;6.992;2022-07-23T03:57:40;12.40;99.90
61201;DHT22;47065;52.898;6.992;2022-07-23T04:00:07;12.30;99.90
61201;DHT22;47065;52.898;6.992;2022-07-23T04:02:35;12.40;99.90
61201;DHT22;47065;52.898;6.992;2022-07-23T04:05:01;12.40;99.90
61201;DHT22;47065;52.898;6.992;2022-07-23T04:07:26;12.40;99.90
61201;DHT22;47065;52.898;6.992;2022-07-23T04:09:52;12.30;99.90
61201;DHT22;47065;52.898;6.992;2022-07-23T04:12:18;12.30;99.90
61201;DHT22;47065;52.898;6.992;2022-07-23T04:14:44;12.20;99.90
61201;DHT22;47065;52.898;6.992;2022-07-23T04:17:11;12.20;99.90
61201;DHT22;47065;52.898;6.992;2022-07-23T04:19:36;12.20;99.90
61201;DHT22;47065;52.898;6.992;2022-07-23T04:22:08;12.20;99.90
61201;DHT22;47065;52.898;6.992;2022-07-23T04:24:34;12.20;99.90
61201;DHT22;47065;52.898;6.992;2022-07-23T04:27:00;12.20;99.90
61201;DHT22;47065;52.898;6.992;2022-07-23T04:29:26;12.20;99.90
61201;DHT22;47065;52.898;6.992;2022-07-23T04:31:52;12.20;99.90
61201;DHT22;47065;52.898;6.992;2022-07-23T04:34:17;12.20;99.90
61201;DHT22;47065;52.898;6.992;2022-07-23T04:36:43;12.20;99.90
61201;DHT22;47065;52.898;6.992;2022-07-23T04:39:09;12.10;99.90
61201;DHT22;47065;52.898;6.992;2022-07-23T04:41:34;12.10;99.90
61201;DHT22;47065;52.898;6.992;2022-07-23T04:44:01;12.10;99.90
61201;DHT22;47065;52.898;6.992;2022-07-23T04:46:26;12.10;99.90
61201;DHT22;47065;52.898;6.992;2022-07-23T04:48:53;12.10;99.90
61201;DHT22;47065;52.898;6.992;2022-07-23T04:51:18;12.10;99.90
61201;DHT22;47065;52.898;6.992;2022-07-23T04:53:44;12.10;99.90
61201;DHT22;47065;52.898;6.992;2022-07-23T04:56:10;12.10;99.90
61201;DHT22;47065;52.898;6.992;2022-07-23T04:58:35;12.10;99.90
61201;DHT22;47065;52.898;6.992;2022-07-23T05:01:01;12.10;99.90
61201;DHT22;47065;52.898;6.992;2022-07-23T05:03:27;12.20;99.90
61201;DHT22;47065;52.898;6.992;2022-07-23T05:05:52;12.20;99.90
61201;DHT22;47065;52.898;6.992;2022-07-23T05:08:18;12.30;99.90
61201;DHT22;47065;52.898;6.992;2022-07-23T05:10:44;12.30;99.90
61201;DHT22;47065;52.898;6.992;2022-07-23T05:13:09;12.40;99.90
61201;DHT22;47065;52.898;6.992;2022-07-23T05:15:35;12.40;99.90
61201;DHT22;47065;52.898;6.992;2022-07-23T05:18:00;12.40;99.90
61201;DHT22;47065;52.898;6.992;2022-07-23T05:20:26;12.50;99.90
61201;DHT22;47065;52.898;6.992;2022-07-23T05:22:52;12.60;99.90
61201;DHT22;47065;52.898;6.992;2022-07-23T05:25:17;12.60;99.90
61201;DHT22;47065;52.898;6.992;2022-07-23T05:27:43;12.60;99.90
61201;DHT22;47065;52.898;6.992;2022-07-23T05:30:09;12.70;99.90
61201;DHT22;47065;52.898;6.992;2022-07-23T05:32:35;12.80;99.90
61201;DHT22;47065;52.898;6.992;2022-07-23T05:35:03;12.90;99.90
61201;DHT22;47065;52.898;6.992;2022-07-23T05:37:28;12.90;99.90
61201;DHT22;47065;52.898;6.992;2022-07-23T05:39:54;13.00;99.90
61201;DHT22;47065;52.898;6.992;2022-07-23T05:42:20;13.10;99.90
61201;DHT22;47065;52.898;6.992;2022-07-23T05:44:45;13.10;99.90
61201;DHT22;47065;52.898;6.992;2022-07-23T05:47:11;13.30;99.90
61201;DHT22;47065;52.898;6.992;2022-07-23T05:49:37;13.80;99.90
61201;DHT22;47065;52.898;6.992;2022-07-23T05:52:05;14.50;99.90
61201;DHT22;47065;52.898;6.992;2022-07-23T05:54:33;15.00;99.90
61201;DHT22;47065;52.898;6.992;2022-07-23T05:56:59;15.20;99.90
61201;DHT22;47065;52.898;6.992;2022-07-23T05:59:25;15.20;99.90
61201;DHT22;47065;52.898;6.992;2022-07-23T06:01:50;15.10;99.90
61201;DHT22;47065;52.898;6.992;2022-07-23T06:04:16;15.00;99.90
61201;DHT22;47065;52.898;6.992;2022-07-23T06:06:41;14.90;99.90
61201;DHT22;47065;52.898;6.992;2022-07-23T06:09:07;14.90;99.90
61201;DHT22;47065;52.898;6.992;2022-07-23T06:11:32;14.80;99.90
61201;DHT22;47065;52.898;6.992;2022-07-23T06:13:58;14.80;99.90
61201;DHT22;47065;52.898;6.992;2022-07-23T06:16:24;14.80;99.90
61201;DHT22;47065;52.898;6.992;2022-07-23T06:18:49;14.80;99.90
61201;DHT22;47065;52.898;6.992;2022-07-23T06:21:15;14.90;99.90
61201;DHT22;47065;52.898;6.992;2022-07-23T06:23:40;15.20;99.90
61201;DHT22;47065;52.898;6.992;2022-07-23T06:26:06;15.50;99.90
61201;DHT22;47065;52.898;6.992;2022-07-23T06:28:32;15.80;99.90
61201;DHT22;47065;52.898;6.992;2022-07-23T06:30:57;16.00;99.90
61201;DHT22;47065;52.898;6.992;2022-07-23T06:33:23;16.20;99.90
61201;DHT22;47065;52.898;6.992;2022-07-23T06:35:49;16.30;99.90
61201;DHT22;47065;52.898;6.992;2022-07-23T06:38:14;16.50;99.90
61201;DHT22;47065;52.898;6.992;2022-07-23T06:40:40;16.60;99.90
61201;DHT22;47065;52.898;6.992;2022-07-23T06:43:05;16.60;99.90
61201;DHT22;47065;52.898;6.992;2022-07-23T06:45:31;16.70;99.90
61201;DHT22;47065;52.898;6.992;2022-07-23T06:47:57;16.90;99.90
61201;DHT22;47065;52.898;6.992;2022-07-23T06:50:22;17.10;99.90
61201;DHT22;47065;52.898;6.992;2022-07-23T06:52:48;17.20;99.90
61201;DHT22;47065;52.898;6.992;2022-07-23T06:55:13;17.20;99.90
61201;DHT22;47065;52.898;6.992;2022-07-23T06:57:39;17.20;99.90
61201;DHT22;47065;52.898;6.992;2022-07-23T07:00:05;17.30;99.90
61201;DHT22;47065;52.898;6.992;2022-07-23T07:02:31;17.50;99.90
61201;DHT22;47065;52.898;6.992;2022-07-23T07:04:57;17.50;99.90
61201;DHT22;47065;52.898;6.992;2022-07-23T07:07:22;17.70;99.90
61201;DHT22;47065;52.898;6.992;2022-07-23T07:09:48;17.80;99.90
61201;DHT22;47065;52.898;6.992;2022-07-23T07:12:13;17.70;99.90
61201;DHT22;47065;52.898;6.992;2022-07-23T07:14:39;17.70;99.90
61201;DHT22;47065;52.898;6.992;2022-07-23T07:17:05;17.80;99.90
61201;DHT22;47065;52.898;6.992;2022-07-23T07:19:30;17.70;99.90
61201;DHT22;47065;52.898;6.992;2022-07-23T07:21:56;17.70;99.90
61201;DHT22;47065;52.898;6.992;2022-07-23T07:24:21;17.70;99.90
61201;DHT22;47065;52.898;6.992;2022-07-23T07:26:47;17.60;99.90
61201;DHT22;47065;52.898;6.992;2022-07-23T07:29:12;17.50;99.90
61201;DHT22;47065;52.898;6.992;2022-07-23T07:31:38;17.50;99.90
61201;DHT22;47065;52.898;6.992;2022-07-23T07:34:04;17.60;99.90
61201;DHT22;47065;52.898;6.992;2022-07-23T07:36:29;17.60;99.90
61201;DHT22;47065;52.898;6.992;2022-07-23T07:38:55;17.60;99.90
61201;DHT22;47065;52.898;6.992;2022-07-23T07:41:21;17.60;99.90
61201;DHT22;47065;52.898;6.992;2022-07-23T07:43:50;17.60;99.90
61201;DHT22;47065;52.898;6.992;2022-07-23T07:46:16;17.60;99.90
61201;DHT22;47065;52.898;6.992;2022-07-23T07:48:41;17.70;99.90
61201;DHT22;47065;52.898;6.992;2022-07-23T07:51:07;17.80;99.90
61201;DHT22;47065;52.898;6.992;2022-07-23T07:53:33;17.90;99.90
61201;DHT22;47065;52.898;6.992;2022-07-23T07:55:58;18.20;99.90
61201;DHT22;47065;52.898;6.992;2022-07-23T07:58:24;18.40;99.90
61201;DHT22;47065;52.898;6.992;2022-07-23T08:00:50;18.60;99.90
61201;DHT22;47065;52.898;6.992;2022-07-23T08:03:16;18.60;99.90
61201;DHT22;47065;52.898;6.992;2022-07-23T08:05:42;18.50;99.90
61201;DHT22;47065;52.898;6.992;2022-07-23T08:08:08;18.50;99.90
61201;DHT22;47065;52.898;6.992;2022-07-23T08:10:35;18.80;99.90
61201;DHT22;47065;52.898;6.992;2022-07-23T08:13:00;19.00;99.90
61201;DHT22;47065;52.898;6.992;2022-07-23T08:15:28;19.00;99.90
61201;DHT22;47065;52.898;6.992;2022-07-23T08:17:55;19.10;99.90
61201;DHT22;47065;52.898;6.992;2022-07-23T08:20:22;18.90;99.90
61201;DHT22;47065;52.898;6.992;2022-07-23T08:22:54;18.80;99.90
61201;DHT22;47065;52.898;6.992;2022-07-23T08:25:40;18.80;99.90
61201;DHT22;47065;52.898;6.992;2022-07-23T08:28:08;18.70;99.90
61201;DHT22;47065;52.898;6.992;2022-07-23T08:30:35;18.80;99.90
61201;DHT22;47065;52.898;6.992;2022-07-23T08:33:10;19.00;99.90
61201;DHT22;47065;52.898;6.992;2022-07-23T08:35:43;19.20;99.90
61201;DHT22;47065;52.898;6.992;2022-07-23T08:38:13;19.10;99.90
61201;DHT22;47065;52.898;6.992;2022-07-23T08:40:47;19.10;99.90
61201;DHT22;47065;52.898;6.992;2022-07-23T08:43:16;19.30;99.90
61201;DHT22;47065;52.898;6.992;2022-07-23T08:45:46;19.50;99.90
61201;DHT22;47065;52.898;6.992;2022-07-23T08:48:19;19.60;99.90
61201;DHT22;47065;52.898;6.992;2022-07-23T08:50:47;19.70;99.90
61201;DHT22;47065;52.898;6.992;2022-07-23T08:53:14;19.70;99.90
61201;DHT22;47065;52.898;6.992;2022-07-23T08:55:39;19.70;99.90
61201;DHT22;47065;52.898;6.992;2022-07-23T08:58:06;19.50;99.90
61201;DHT22;47065;52.898;6.992;2022-07-23T09:00:32;19.40;99.90
61201;DHT22;47065;52.898;6.992;2022-07-23T09:02:58;19.30;99.90
61201;DHT22;47065;52.898;6.992;2022-07-23T09:05:24;19.60;99.90
61201;DHT22;47065;52.898;6.992;2022-07-23T09:13:36;20.70;99.90
61201;DHT22;47065;52.898;6.992;2022-07-23T09:16:24;20.80;99.90
61201;DHT22;47065;52.898;6.992;2022-07-23T09:18:58;21.50;99.90
61201;DHT22;47065;52.898;6.992;2022-07-23T09:21:25;21.80;96.10
61201;DHT22;47065;52.898;6.992;2022-07-23T09:24:09;22.10;92.50
61201;DHT22;47065;52.898;6.992;2022-07-23T09:26:39;23.00;86.00
61201;DHT22;47065;52.898;6.992;2022-07-23T09:31:47;24.60;67.70
61201;DHT22;47065;52.898;6.992;2022-07-23T09:36:38;23.80;91.00
61201;DHT22;47065;52.898;6.992;2022-07-23T09:39:05;23.50;91.50
61201;DHT22;47065;52.898;6.992;2022-07-23T09:41:42;23.00;92.40
61201;DHT22;47065;52.898;6.992;2022-07-23T09:44:13;22.40;90.80
61201;DHT22;47065;52.898;6.992;2022-07-23T09:46:40;22.00;95.50
61201;DHT22;47065;52.898;6.992;2022-07-23T09:49:13;21.70;97.30
61201;DHT22;47065;52.898;6.992;2022-07-23T09:51:47;21.60;98.60
61201;DHT22;47065;52.898;6.992;2022-07-23T09:54:22;21.90;99.30
61201;DHT22;47065;52.898;6.992;2022-07-23T09:56:49;22.60;98.90
61201;DHT22;47065;52.898;6.992;2022-07-23T09:59:16;23.50;96.90
61201;DHT22;47065;52.898;6.992;2022-07-23T10:01:45;24.40;93.20
61201;DHT22;47065;52.898;6.992;2022-07-23T10:04:12;25.00;77.50
61201;DHT22;47065;52.898;6.992;2022-07-23T10:06:39;25.70;61.50
61201;DHT22;47065;52.898;6.992;2022-07-23T10:09:07;26.60;61.30
61201;DHT22;47065;52.898;6.992;2022-07-23T10:11:34;27.30;59.80
61201;DHT22;47065;52.898;6.992;2022-07-23T10:14:01;27.40;56.30
61201;DHT22;47065;52.898;6.992;2022-07-23T10:16:29;27.00;54.50
61201;DHT22;47065;52.898;6.992;2022-07-23T10:18:55;26.10;57.10
61201;DHT22;47065;52.898;6.992;2022-07-23T10:21:30;25.00;56.60
61201;DHT22;47065;52.898;6.992;2022-07-23T10:33:03;25.40;60.00
61201;DHT22;47065;52.898;6.992;2022-07-23T10:36:01;25.60;57.90
61201;DHT22;47065;52.898;6.992;2022-07-23T10:39:05;25.80;59.10
61201;DHT22;47065;52.898;6.992;2022-07-23T10:41:33;25.70;57.20
61201;DHT22;47065;52.898;6.992;2022-07-23T10:44:12;25.10;58.90
61201;DHT22;47065;52.898;6.992;2022-07-23T10:47:05;24.30;59.70
61201;DHT22;47065;52.898;6.992;2022-07-23T10:49:36;24.10;71.60
61201;DHT22;47065;52.898;6.992;2022-07-23T10:54:40;24.00;69.40
61201;DHT22;47065;52.898;6.992;2022-07-23T10:57:08;23.90;71.40
61201;DHT22;47065;52.898;6.992;2022-07-23T11:02:34;23.70;72.50
61201;DHT22;47065;52.898;6.992;2022-07-23T11:05:03;23.50;79.60
61201;DHT22;47065;52.898;6.992;2022-07-23T11:07:29;23.40;81.10
61201;DHT22;47065;52.898;6.992;2022-07-23T11:09:55;23.40;86.50
61201;DHT22;47065;52.898;6.992;2022-07-23T11:17:35;23.50;86.00
61201;DHT22;47065;52.898;6.992;2022-07-23T11:22:47;23.70;71.70
61201;DHT22;47065;52.898;6.992;2022-07-23T11:27:49;23.20;75.40
61201;DHT22;47065;52.898;6.992;2022-07-23T11:35:35;23.60;77.10
61201;DHT22;47065;52.898;6.992;2022-07-23T11:38:08;23.60;77.90
61201;DHT22;47065;52.898;6.992;2022-07-23T11:40:38;23.50;84.80
61201;DHT22;47065;52.898;6.992;2022-07-23T11:43:06;23.60;90.20
61201;DHT22;47065;52.898;6.992;2022-07-23T11:45:41;23.70;78.40
61201;DHT22;47065;52.898;6.992;2022-07-23T11:48:14;23.60;80.10
61201;DHT22;47065;52.898;6.992;2022-07-23T11:50:41;23.80;71.40
61201;DHT22;47065;52.898;6.992;2022-07-23T11:53:06;23.80;80.00
61201;DHT22;47065;52.898;6.992;2022-07-23T11:55:32;23.70;82.80
61201;DHT22;47065;52.898;6.992;2022-07-23T11:57:58;23.60;87.90
61201;DHT22;47065;52.898;6.992;2022-07-23T12:00:27;23.70;89.00
61201;DHT22;47065;52.898;6.992;2022-07-23T12:03:02;23.70;87.70
61201;DHT22;47065;52.898;6.992;2022-07-23T12:05:33;23.60;90.00
61201;DHT22;47065;52.898;6.992;2022-07-23T12:08:00;23.60;85.40
61201;DHT22;47065;52.898;6.992;2022-07-23T12:10:30;23.60;89.30
61201;DHT22;47065;52.898;6.992;2022-07-23T12:13:04;23.70;79.10
61201;DHT22;47065;52.898;6.992;2022-07-23T12:15:35;23.70;89.40
61201;DHT22;47065;52.898;6.992;2022-07-23T12:18:04;23.80;85.80
61201;DHT22;47065;52.898;6.992;2022-07-23T12:20:40;24.00;90.20
61201;DHT22;47065;52.898;6.992;2022-07-23T12:23:07;24.20;87.80
61201;DHT22;47065;52.898;6.992;2022-07-23T12:25:37;24.30;84.00
61201;DHT22;47065;52.898;6.992;2022-07-23T12:30:40;24.30;76.40
61201;DHT22;47065;52.898;6.992;2022-07-23T12:33:08;24.30;82.60
61201;DHT22;47065;52.898;6.992;2022-07-23T12:35:37;24.30;76.90
61201;DHT22;47065;52.898;6.992;2022-07-23T12:38:05;24.30;76.90
61201;DHT22;47065;52.898;6.992;2022-07-23T12:40:41;24.20;77.00
61201;DHT22;47065;52.898;6.992;2022-07-23T12:43:28;24.00;70.60
61201;DHT22;47065;52.898;6.992;2022-07-23T12:45:56;24.00;70.40
61201;DHT22;47065;52.898;6.992;2022-07-23T12:48:28;23.80;84.00
61201;DHT22;47065;52.898;6.992;2022-07-23T12:53:30;23.80;89.20
61201;DHT22;47065;52.898;6.992;2022-07-23T12:56:10;23.70;90.20
61201;DHT22;47065;52.898;6.992;2022-07-23T12:58:57;23.70;90.80
61201;DHT22;47065;52.898;6.992;2022-07-23T13:01:26;23.70;83.30
61201;DHT22;47065;52.898;6.992;2022-07-23T13:06:25;23.80;88.20
61201;DHT22;47065;52.898;6.992;2022-07-23T13:08:51;23.80;90.50
61201;DHT22;47065;52.898;6.992;2022-07-23T13:11:16;23.80;81.40
61201;DHT22;47065;52.898;6.992;2022-07-23T13:13:42;23.70;90.30
61201;DHT22;47065;52.898;6.992;2022-07-23T13:16:08;23.70;91.30
61201;DHT22;47065;52.898;6.992;2022-07-23T13:18:33;23.70;95.00
61201;DHT22;47065;52.898;6.992;2022-07-23T13:21:01;23.80;91.80
61201;DHT22;47065;52.898;6.992;2022-07-23T13:23:27;23.90;90.90
61201;DHT22;47065;52.898;6.992;2022-07-23T13:25:53;24.00;92.20
61201;DHT22;47065;52.898;6.992;2022-07-23T13:28:20;24.00;92.10
61201;DHT22;47065;52.898;6.992;2022-07-23T13:30:47;24.20;91.90
61201;DHT22;47065;52.898;6.992;2022-07-23T13:33:15;24.40;91.20
61201;DHT22;47065;52.898;6.992;2022-07-23T13:35:42;24.60;91.10
61201;DHT22;47065;52.898;6.992;2022-07-23T13:38:07;24.70;91.00
61201;DHT22;47065;52.898;6.992;2022-07-23T13:40:35;24.70;91.20
61201;DHT22;47065;52.898;6.992;2022-07-23T13:43:01;24.70;92.30
61201;DHT22;47065;52.898;6.992;2022-07-23T13:45:27;24.80;93.40
61201;DHT22;47065;52.898;6.992;2022-07-23T13:47:53;24.90;91.20
61201;DHT22;47065;52.898;6.992;2022-07-23T13:50:19;25.20;77.50
61201;DHT22;47065;52.898;6.992;2022-07-23T13:52:44;25.30;75.40
61201;DHT22;47065;52.898;6.992;2022-07-23T13:55:10;25.20;71.60
61201;DHT22;47065;52.898;6.992;2022-07-23T13:57:36;25.10;72.70
61201;DHT22;47065;52.898;6.992;2022-07-23T14:00:04;25.00;84.20
61201;DHT22;47065;52.898;6.992;2022-07-23T14:02:30;24.90;86.80
61201;DHT22;47065;52.898;6.992;2022-07-23T14:04:55;24.90;81.10
61201;DHT22;47065;52.898;6.992;2022-07-23T14:07:22;24.90;78.90
61201;DHT22;47065;52.898;6.992;2022-07-23T14:09:48;24.90;83.20
61201;DHT22;47065;52.898;6.992;2022-07-23T14:12:13;24.80;85.40
61201;DHT22;47065;52.898;6.992;2022-07-23T14:14:39;24.70;85.50
61201;DHT22;47065;52.898;6.992;2022-07-23T14:17:05;24.60;89.60
61201;DHT22;47065;52.898;6.992;2022-07-23T14:19:30;24.60;91.60
61201;DHT22;47065;52.898;6.992;2022-07-23T14:21:56;24.60;92.30
61201;DHT22;47065;52.898;6.992;2022-07-23T14:24:22;24.60;86.90
61201;DHT22;47065;52.898;6.992;2022-07-23T14:26:47;24.60;89.20
61201;DHT22;47065;52.898;6.992;2022-07-23T14:29:13;24.80;86.20
61201;DHT22;47065;52.898;6.992;2022-07-23T14:31:38;25.00;86.50
61201;DHT22;47065;52.898;6.992;2022-07-23T14:34:04;25.10;75.80
61201;DHT22;47065;52.898;6.992;2022-07-23T14:36:30;25.10;69.50
61201;DHT22;47065;52.898;6.992;2022-07-23T14:38:55;24.80;78.90
61201;DHT22;47065;52.898;6.992;2022-07-23T14:41:21;24.60;83.50
61201;DHT22;47065;52.898;6.992;2022-07-23T14:43:46;24.60;85.90
61201;DHT22;47065;52.898;6.992;2022-07-23T14:46:15;24.50;89.40
61201;DHT22;47065;52.898;6.992;2022-07-23T14:48:41;24.60;90.30
61201;DHT22;47065;52.898;6.992;2022-07-23T14:51:06;24.60;90.30
61201;DHT22;47065;52.898;6.992;2022-07-23T14:53:32;24.70;79.10
61201;DHT22;47065;52.898;6.992;2022-07-23T14:55:58;24.80;78.70
61201;DHT22;47065;52.898;6.992;2022-07-23T14:58:24;24.90;78.00
61201;DHT22;47065;52.898;6.992;2022-07-23T15:00:50;25.10;74.70
61201;DHT22;47065;52.898;6.992;2022-07-23T15:03:16;25.20;80.50
61201;DHT22;47065;52.898;6.992;2022-07-23T15:05:42;25.30;80.30
61201;DHT22;47065;52.898;6.992;2022-07-23T15:08:08;25.50;71.00
61201;DHT22;47065;52.898;6.992;2022-07-23T15:10:34;25.70;79.50
61201;DHT22;47065;52.898;6.992;2022-07-23T15:12:59;25.70;88.10
61201;DHT22;47065;52.898;6.992;2022-07-23T15:15:25;25.70;90.20
61201;DHT22;47065;52.898;6.992;2022-07-23T15:17:50;25.50;88.30
61201;DHT22;47065;52.898;6.992;2022-07-23T15:20:16;25.20;90.00
61201;DHT22;47065;52.898;6.992;2022-07-23T15:22:42;25.00;90.70
61201;DHT22;47065;52.898;6.992;2022-07-23T15:25:08;24.80;91.40
61201;DHT22;47065;52.898;6.992;2022-07-23T15:27:34;24.70;91.60
61201;DHT22;47065;52.898;6.992;2022-07-23T15:30:01;24.60;91.40
61201;DHT22;47065;52.898;6.992;2022-07-23T15:32:27;24.70;91.90
61201;DHT22;47065;52.898;6.992;2022-07-23T15:34:53;24.80;92.20
61201;DHT22;47065;52.898;6.992;2022-07-23T15:37:19;25.00;91.60
61201;DHT22;47065;52.898;6.992;2022-07-23T15:39:44;25.10;89.30
61201;DHT22;47065;52.898;6.992;2022-07-23T15:42:10;25.10;89.10
61201;DHT22;47065;52.898;6.992;2022-07-23T15:44:36;25.00;90.00
61201;DHT22;47065;52.898;6.992;2022-07-23T15:47:02;24.80;91.00
61201;DHT22;47065;52.898;6.992;2022-07-23T15:49:28;24.70;91.70
61201;DHT22;47065;52.898;6.992;2022-07-23T15:51:54;24.60;92.70
61201;DHT22;47065;52.898;6.992;2022-07-23T15:54:20;24.50;93.20
61201;DHT22;47065;52.898;6.992;2022-07-23T15:56:47;24.50;92.70
61201;DHT22;47065;52.898;6.992;2022-07-23T15:59:12;24.60;91.80
61201;DHT22;47065;52.898;6.992;2022-07-23T16:01:38;24.70;91.50
61201;DHT22;47065;52.898;6.992;2022-07-23T16:04:04;24.80;91.10
61201;DHT22;47065;52.898;6.992;2022-07-23T16:06:32;25.00;90.00
61201;DHT22;47065;52.898;6.992;2022-07-23T16:08:58;24.90;90.90
61201;DHT22;47065;52.898;6.992;2022-07-23T16:11:25;24.70;90.40
61201;DHT22;47065;52.898;6.992;2022-07-23T16:13:51;24.60;91.60
61201;DHT22;47065;52.898;6.992;2022-07-23T16:16:16;24.40;94.00
61201;DHT22;47065;52.898;6.992;2022-07-23T16:18:42;24.30;95.00